createdAt,value
2024-01-18T00:00:03.568Z,20.30
2024-01-18T00:01:02.648Z,19.50
2024-01-18T00:02:02.404Z,28.30
2024-01-18T00:03:02.584Z,38.50
2024-01-18T00:04:02.520Z,26.00
2024-01-18T00:05:02.513Z,25.40
2024-01-18T00:06:02.638Z,28.20
2024-01-18T00:07:02.582Z,23.20
2024-01-18T00:08:02.479Z,23.40
2024-01-18T00:09:05.012Z,20.90
2024-01-18T00:10:02.506Z,22.30
2024-01-18T00:11:02.571Z,21.30
2024-01-18T00:12:02.445Z,23.60
2024-01-18T00:13:04.562Z,21.60
2024-01-18T00:14:02.368Z,22.10
2024-01-18T00:15:02.485Z,19.70
2024-01-18T00:16:02.388Z,20.50
2024-01-18T00:17:02.563Z,22.50
2024-01-18T00:18:02.370Z,22.90
2024-01-18T00:19:02.503Z,20.20
2024-01-18T00:20:02.549Z,24.70
2024-01-18T00:21:02.361Z,19.20
2024-01-18T00:22:02.243Z,21.30
2024-01-18T00:23:02.223Z,19.80
2024-01-18T00:24:02.210Z,23.30
2024-01-18T00:25:02.200Z,19.40
2024-01-18T00:26:02.262Z,20.00
2024-01-18T00:27:02.235Z,19.90
2024-01-18T00:28:10.066Z,19.20
2024-01-18T00:29:05.476Z,19.90
2024-01-18T00:30:02.862Z,18.50
2024-01-18T00:31:02.293Z,19.70
2024-01-18T00:32:02.362Z,21.80
2024-01-18T00:33:02.774Z,21.20
2024-01-18T00:34:02.959Z,23.10
2024-01-18T00:35:03.499Z,21.40
2024-01-18T00:36:04.867Z,19.90
2024-01-18T00:37:02.416Z,24.70
2024-01-18T00:38:03.701Z,21.50
2024-01-18T00:39:02.124Z,21.50
2024-01-18T00:40:02.055Z,22.80
2024-01-18T00:41:02.920Z,19.90
2024-01-18T00:42:02.226Z,17.80
2024-01-18T00:43:04.155Z,20.60
2024-01-18T00:44:01.929Z,21.60
2024-01-18T00:45:01.947Z,21.20
2024-01-18T00:46:03.019Z,28.70
2024-01-18T00:47:01.877Z,27.60
2024-01-18T00:48:02.151Z,43.80
2024-01-18T00:49:01.975Z,33.60
2024-01-18T00:50:01.886Z,49.00
2024-01-18T00:51:02.646Z,39.60
2024-01-18T00:52:02.926Z,30.90
2024-01-18T00:53:01.861Z,27.10
2024-01-18T00:54:01.992Z,24.10
2024-01-18T00:55:01.970Z,26.20
2024-01-18T00:56:01.909Z,83.60
2024-01-18T00:57:01.811Z,40.60
2024-01-18T00:58:02.142Z,36.10
2024-01-18T00:59:01.796Z,22.00
2024-01-18T01:00:02.133Z,42.50
2024-01-18T01:01:01.919Z,29.40
2024-01-18T01:02:01.927Z,29.30
2024-01-18T01:03:01.883Z,89.30
2024-01-18T01:04:02.056Z,44.30
2024-01-18T01:05:01.879Z,36.80
2024-01-18T01:06:01.802Z,27.20
2024-01-18T01:07:01.622Z,27.10
2024-01-18T01:08:01.834Z,28.30
2024-01-18T01:09:01.802Z,31.60
2024-01-18T01:10:01.797Z,37.80
2024-01-18T01:11:01.674Z,24.90
2024-01-18T01:12:01.812Z,19.80
2024-01-18T01:13:01.658Z,22.50
2024-01-18T01:14:01.668Z,38.90
2024-01-18T01:15:01.756Z,34.00
2024-01-18T01:16:01.954Z,34.20
2024-01-18T01:17:01.699Z,24.30
2024-01-18T01:18:01.612Z,21.30
2024-01-18T01:19:01.615Z,28.90
2024-01-18T01:20:05.618Z,24.50
2024-01-18T01:21:02.369Z,24.40
2024-01-18T01:22:03.382Z,27.40
2024-01-18T01:23:01.286Z,21.40
2024-01-18T01:24:22.356Z,25.60
2024-01-18T01:25:01.250Z,25.10
2024-01-18T01:26:01.365Z,23.40
2024-01-18T01:27:01.364Z,24.50
2024-01-18T01:28:01.534Z,21.50
2024-01-18T01:29:01.249Z,21.70
2024-01-18T01:30:01.432Z,21.50
2024-01-18T01:31:01.206Z,20.40
2024-01-18T01:32:01.268Z,19.60
2024-01-18T01:33:01.308Z,21.30
2024-01-18T01:34:01.191Z,21.30
2024-01-18T01:35:01.127Z,21.20
2024-01-18T01:36:01.209Z,32.00
2024-01-18T01:37:01.109Z,31.00
2024-01-18T01:38:01.203Z,30.70
2024-01-18T01:39:01.174Z,68.20
2024-01-18T01:40:01.130Z,28.10
2024-01-18T01:41:01.065Z,24.20
2024-01-18T01:42:01.166Z,22.90
2024-01-18T01:43:01.017Z,20.40
2024-01-18T01:44:01.051Z,20.50
2024-01-18T01:45:01.070Z,19.60
2024-01-18T01:46:01.040Z,20.50
2024-01-18T01:47:00.956Z,22.10
2024-01-18T01:48:01.146Z,20.80
2024-01-18T01:49:01.020Z,22.80
2024-01-18T01:50:00.975Z,22.10
2024-01-18T01:51:00.951Z,27.80
2024-01-18T01:52:02.013Z,29.80
2024-01-18T01:53:00.886Z,25.90
2024-01-18T01:54:00.955Z,23.00
2024-01-18T01:55:00.855Z,27.10
2024-01-18T01:56:00.957Z,26.00
2024-01-18T01:57:00.899Z,24.50
2024-01-18T01:58:00.931Z,26.70
2024-01-18T01:59:00.800Z,28.70
2024-01-18T02:00:00.911Z,26.50
2024-01-18T02:01:00.858Z,24.30
2024-01-18T02:02:00.883Z,24.60
2024-01-18T02:03:00.797Z,22.90
2024-01-18T02:04:00.834Z,23.80
2024-01-18T02:05:00.783Z,21.10
2024-01-18T02:06:01.006Z,22.60
2024-01-18T02:07:00.782Z,19.40
2024-01-18T02:08:00.807Z,19.80
2024-01-18T02:09:00.826Z,18.60
2024-01-18T02:10:00.811Z,20.70
2024-01-18T02:11:00.655Z,19.60
2024-01-18T02:12:00.755Z,22.00
2024-01-18T02:13:00.654Z,20.90
2024-01-18T02:14:00.628Z,20.80
2024-01-18T02:15:00.762Z,20.20
2024-01-18T02:16:00.743Z,19.50
2024-01-18T02:17:00.558Z,19.20
2024-01-18T02:18:00.713Z,18.10
2024-01-18T02:19:00.648Z,19.40
2024-01-18T02:20:00.659Z,22.10
2024-01-18T02:21:00.563Z,20.70
2024-01-18T02:22:00.628Z,20.80
2024-01-18T02:23:00.485Z,21.40
2024-01-18T02:24:00.541Z,20.20
2024-01-18T02:25:00.515Z,19.80
2024-01-18T02:26:00.537Z,23.40
2024-01-18T02:27:00.514Z,25.70
2024-01-18T02:28:00.539Z,25.40
2024-01-18T02:29:00.408Z,21.90
2024-01-18T02:30:00.609Z,25.00
2024-01-18T02:31:00.386Z,21.80
2024-01-18T02:32:00.489Z,21.20
2024-01-18T02:33:00.490Z,23.00
2024-01-18T02:34:02.578Z,22.10
2024-01-18T02:35:00.331Z,21.70
2024-01-18T02:36:21.451Z,22.70
2024-01-18T02:37:00.299Z,26.10
2024-01-18T02:38:00.395Z,28.40
2024-01-18T02:39:00.314Z,28.20
2024-01-18T02:40:00.319Z,29.60
2024-01-18T02:41:00.257Z,29.30
2024-01-18T02:42:00.351Z,27.50
2024-01-18T02:43:00.230Z,25.80
2024-01-18T02:44:00.238Z,25.90
2024-01-18T02:45:00.289Z,22.20
2024-01-18T02:46:00.240Z,18.70
2024-01-18T02:47:00.163Z,18.80
2024-01-18T02:48:00.390Z,16.80
2024-01-18T02:49:00.174Z,19.60
2024-01-18T02:50:00.475Z,22.60
2024-01-18T02:51:00.212Z,23.00
2024-01-18T02:52:00.197Z,31.40
2024-01-18T02:53:00.091Z,35.30
2024-01-18T02:54:00.168Z,30.30
2024-01-18T02:55:00.069Z,33.80
2024-01-18T02:56:00.225Z,22.20
2024-01-18T02:57:00.092Z,22.30
2024-01-18T02:58:00.133Z,20.80
2024-01-18T02:59:00.019Z,19.00
2024-01-18T03:00:00.077Z,17.20
2024-01-18T03:01:00.005Z,17.50
2024-01-18T03:02:00.084Z,20.40
2024-01-18T03:03:00.007Z,22.10
2024-01-18T03:04:00.157Z,28.00
2024-01-18T03:04:59.927Z,26.20
2024-01-18T03:06:00.076Z,22.50
2024-01-18T03:06:59.931Z,20.30
2024-01-18T03:08:00.017Z,21.40
2024-01-18T03:08:59.917Z,20.70
2024-01-18T03:09:59.909Z,19.30
2024-01-18T03:10:59.873Z,21.70
2024-01-18T03:11:59.959Z,17.70
2024-01-18T03:12:59.831Z,16.50
2024-01-18T03:13:59.839Z,18.40
2024-01-18T03:14:59.837Z,22.60
2024-01-18T03:16:01.941Z,17.10
2024-01-18T03:16:59.766Z,22.30
2024-01-18T03:17:59.941Z,20.30
2024-01-18T03:18:59.902Z,16.80
2024-01-18T03:19:59.811Z,20.40
2024-01-18T03:20:59.805Z,21.40
2024-01-18T03:21:59.794Z,23.00
2024-01-18T03:22:59.714Z,20.20
2024-01-18T03:23:59.749Z,18.10
2024-01-18T03:24:59.675Z,19.60
2024-01-18T03:25:59.722Z,20.10
2024-01-18T03:26:59.683Z,20.70
2024-01-18T03:27:59.747Z,24.20
2024-01-18T03:28:59.649Z,25.10
2024-01-18T03:29:59.672Z,27.30
2024-01-18T03:30:59.590Z,23.70
2024-01-18T03:31:59.716Z,29.60
2024-01-18T03:32:59.679Z,22.40
2024-01-18T03:33:59.686Z,25.30
2024-01-18T03:34:59.530Z,25.50
2024-01-18T03:35:59.612Z,26.60
2024-01-18T03:36:59.518Z,26.50
2024-01-18T03:37:59.615Z,27.00
2024-01-18T03:38:59.533Z,28.30
2024-01-18T03:39:59.516Z,25.30
2024-01-18T03:40:59.450Z,26.20
2024-01-18T03:41:59.653Z,23.90
2024-01-18T03:42:59.488Z,22.40
2024-01-18T03:43:59.459Z,25.00
2024-01-18T03:44:59.634Z,23.70
2024-01-18T03:45:59.458Z,24.00
2024-01-18T03:46:59.445Z,25.90
2024-01-18T03:47:59.609Z,23.90
2024-01-18T03:48:59.421Z,24.50
2024-01-18T03:49:59.491Z,25.10
2024-01-18T03:50:59.380Z,24.50
2024-01-18T03:51:59.529Z,27.30
2024-01-18T03:52:59.316Z,24.20
2024-01-18T03:53:59.373Z,23.70
2024-01-18T03:54:59.280Z,28.40
2024-01-18T03:55:59.327Z,21.60
2024-01-18T03:56:59.298Z,24.10
2024-01-18T03:57:59.351Z,26.10
2024-01-18T03:58:59.235Z,26.40
2024-01-18T03:59:59.297Z,23.50
2024-01-18T04:00:59.386Z,22.40
2024-01-18T04:01:59.268Z,21.00
2024-01-18T04:02:59.303Z,26.10
2024-01-18T04:03:59.293Z,21.90
2024-01-18T04:04:59.156Z,23.40
2024-01-18T04:05:59.290Z,22.70
2024-01-18T04:06:59.163Z,23.20
2024-01-18T04:07:59.209Z,22.60
2024-01-18T04:08:59.167Z,25.10
2024-01-18T04:09:59.125Z,21.10
2024-01-18T04:10:59.071Z,27.30
2024-01-18T04:11:59.272Z,25.30
2024-01-18T04:12:59.057Z,23.40
2024-01-18T04:13:59.053Z,22.50
2024-01-18T04:14:59.168Z,24.70
2024-01-18T04:15:59.074Z,26.00
2024-01-18T04:16:59.002Z,24.40
2024-01-18T04:17:59.169Z,25.20
2024-01-18T04:18:59.195Z,23.00
2024-01-18T04:19:58.996Z,24.90
2024-01-18T04:20:58.993Z,22.40
2024-01-18T04:21:59.008Z,19.20
2024-01-18T04:22:58.899Z,20.60
2024-01-18T04:23:58.946Z,23.10
2024-01-18T04:24:58.888Z,24.40
2024-01-18T04:26:00.105Z,22.80
2024-01-18T04:26:58.896Z,28.80
2024-01-18T04:27:59.064Z,27.30
2024-01-18T04:28:58.825Z,25.50
2024-01-18T04:29:58.902Z,27.40
2024-01-18T04:30:58.797Z,27.10
2024-01-18T04:31:58.888Z,22.10
2024-01-18T04:32:58.869Z,28.10
2024-01-18T04:33:58.836Z,27.00
2024-01-18T04:34:58.779Z,26.80
2024-01-18T04:35:58.846Z,24.30
2024-01-18T04:36:58.734Z,25.50
2024-01-18T04:37:58.825Z,24.70
2024-01-18T04:38:58.783Z,21.10
2024-01-18T04:39:58.733Z,22.30
2024-01-18T04:40:58.682Z,23.20
2024-01-18T04:41:58.773Z,26.00
2024-01-18T04:42:58.643Z,22.00
2024-01-18T04:43:58.659Z,21.60
2024-01-18T04:44:58.685Z,24.60
2024-01-18T04:45:58.675Z,22.60
2024-01-18T04:46:58.737Z,23.10
2024-01-18T04:47:58.777Z,25.00
2024-01-18T04:48:58.752Z,26.40
2024-01-18T04:49:58.684Z,24.20
2024-01-18T04:50:58.608Z,21.90
2024-01-18T04:51:58.620Z,24.70
2024-01-18T04:53:01.093Z,21.00
2024-01-18T04:53:58.542Z,21.60
2024-01-18T04:54:58.501Z,23.30
2024-01-18T04:55:58.536Z,24.70
2024-01-18T04:56:58.559Z,25.90
2024-01-18T04:57:58.549Z,24.90
2024-01-18T04:58:58.472Z,23.50
2024-01-18T05:01:07.882Z,22.40
2024-01-18T05:02:07.694Z,24.20
2024-01-18T05:03:08.833Z,26.00
2024-01-18T05:04:07.694Z,27.60
2024-01-18T05:05:07.796Z,27.40
2024-01-18T05:06:07.766Z,27.00
2024-01-18T05:07:07.811Z,26.90
2024-01-18T05:08:07.652Z,28.90
2024-01-18T05:09:07.699Z,26.20
2024-01-18T05:10:07.708Z,25.70
2024-01-18T05:11:07.836Z,31.10
2024-01-18T05:12:07.986Z,29.00
2024-01-18T05:13:07.576Z,27.00
2024-01-18T05:14:07.569Z,27.30
2024-01-18T05:15:07.619Z,28.90
2024-01-18T05:16:07.528Z,27.10
2024-01-18T05:17:07.602Z,26.80
2024-01-18T05:18:07.556Z,31.70
2024-01-18T05:19:07.623Z,27.20
2024-01-18T05:20:07.596Z,30.10
2024-01-18T05:21:07.568Z,28.20
2024-01-18T05:22:07.421Z,28.00
2024-01-18T05:23:07.434Z,25.60
2024-01-18T05:24:07.443Z,26.60
2024-01-18T05:25:07.565Z,26.80
2024-01-18T05:26:07.394Z,27.40
2024-01-18T05:27:07.516Z,28.50
2024-01-18T05:28:07.336Z,26.30
2024-01-18T05:29:07.381Z,26.40
2024-01-18T05:30:07.362Z,22.60
2024-01-18T05:31:07.397Z,27.50
2024-01-18T05:32:07.328Z,29.40
2024-01-18T05:33:07.352Z,25.20
2024-01-18T05:34:07.343Z,27.50
2024-01-18T05:35:07.317Z,25.90
2024-01-18T05:36:07.293Z,24.70
2024-01-18T05:37:07.330Z,24.10
2024-01-18T05:38:07.255Z,28.30
2024-01-18T05:39:07.273Z,24.90
2024-01-18T05:40:07.188Z,25.40
2024-01-18T05:41:07.268Z,25.90
2024-01-18T05:42:07.178Z,22.60
2024-01-18T05:43:07.185Z,26.10
2024-01-18T05:44:07.170Z,24.70
2024-01-18T05:45:07.234Z,23.60
2024-01-18T05:46:07.102Z,22.90
2024-01-18T05:47:07.205Z,22.90
2024-01-18T05:48:07.187Z,20.80
2024-01-18T05:49:07.179Z,24.50
2024-01-18T05:50:07.181Z,25.60
2024-01-18T05:51:07.346Z,20.80
2024-01-18T05:52:07.015Z,25.30
2024-01-18T05:53:07.038Z,23.90
2024-01-18T05:54:07.033Z,22.50
2024-01-18T05:55:07.059Z,26.90
2024-01-18T05:56:06.992Z,23.60
2024-01-18T05:57:07.143Z,23.90
2024-01-18T05:58:06.950Z,26.30
2024-01-18T05:59:06.980Z,21.00
2024-01-18T06:00:06.996Z,22.30
2024-01-18T06:01:07.077Z,21.80
2024-01-18T06:02:06.931Z,22.60
2024-01-18T06:03:06.986Z,25.40
2024-01-18T06:04:06.893Z,24.10
2024-01-18T06:05:08.927Z,20.90
2024-01-18T06:06:06.882Z,24.70
2024-01-18T06:07:07.085Z,24.50
2024-01-18T06:08:06.847Z,24.60
2024-01-18T06:09:06.853Z,34.20
2024-01-18T06:10:06.791Z,29.10
2024-01-18T06:11:07.895Z,30.60
2024-01-18T06:12:06.787Z,37.80
2024-01-18T06:13:06.778Z,24.70
2024-01-18T06:14:06.777Z,26.50
2024-01-18T06:15:06.816Z,27.40
2024-01-18T06:16:06.715Z,26.80
2024-01-18T06:17:06.806Z,34.80
2024-01-18T06:18:06.799Z,37.40
2024-01-18T06:19:06.814Z,25.10
2024-01-18T06:20:06.753Z,26.90
2024-01-18T06:21:06.760Z,22.20
2024-01-18T06:22:06.653Z,24.30
2024-01-18T06:23:06.653Z,23.80
2024-01-18T06:24:06.695Z,19.60
2024-01-18T06:25:06.667Z,22.70
2024-01-18T06:26:06.633Z,21.50
2024-01-18T06:27:06.727Z,21.90
2024-01-18T06:28:06.572Z,22.20
2024-01-18T06:29:06.588Z,22.60
2024-01-18T06:30:06.576Z,19.90
2024-01-18T06:31:06.619Z,20.90
2024-01-18T06:32:07.593Z,21.40
2024-01-18T06:33:06.661Z,23.40
2024-01-18T06:34:06.684Z,22.80
2024-01-18T06:35:06.580Z,21.70
2024-01-18T06:36:06.498Z,24.00
2024-01-18T06:37:06.532Z,31.30
2024-01-18T06:38:06.475Z,24.90
2024-01-18T06:39:06.490Z,24.70
2024-01-18T06:40:06.408Z,27.80
2024-01-18T06:41:06.464Z,25.00
2024-01-18T06:42:06.388Z,31.80
2024-01-18T06:43:07.414Z,34.40
2024-01-18T06:44:06.387Z,33.30
2024-01-18T06:45:06.444Z,30.40
2024-01-18T06:46:06.324Z,27.00
2024-01-18T06:47:08.096Z,30.80
2024-01-18T06:48:06.398Z,32.30
2024-01-18T06:49:06.432Z,31.60
2024-01-18T06:50:06.402Z,29.00
2024-01-18T06:51:06.373Z,23.80
2024-01-18T06:52:06.266Z,33.40
2024-01-18T06:53:06.350Z,30.50
2024-01-18T06:54:06.276Z,34.10
2024-01-18T06:55:06.263Z,29.20
2024-01-18T06:56:06.246Z,30.40
2024-01-18T06:57:06.314Z,34.10
2024-01-18T06:58:06.183Z,28.00
2024-01-18T06:59:06.196Z,28.10
2024-01-18T07:00:06.229Z,31.10
2024-01-18T07:01:06.360Z,32.20
2024-01-18T07:02:06.143Z,33.80
2024-01-18T07:03:06.277Z,33.90
2024-01-18T07:04:06.188Z,34.70
2024-01-18T07:05:06.157Z,36.90
2024-01-18T07:06:06.120Z,37.50
2024-01-18T07:07:06.183Z,35.10
2024-01-18T07:08:06.069Z,36.00
2024-01-18T07:09:06.098Z,41.30
2024-01-18T07:10:06.028Z,37.70
2024-01-18T07:11:06.144Z,35.80
2024-01-18T07:12:06.033Z,36.60
2024-01-18T07:13:06.087Z,34.10
2024-01-18T07:14:05.989Z,31.50
2024-01-18T07:15:07.070Z,39.80
2024-01-18T07:16:05.941Z,31.40
2024-01-18T07:17:06.012Z,31.30
2024-01-18T07:18:06.070Z,30.00
2024-01-18T07:19:06.138Z,32.00
2024-01-18T07:20:06.065Z,35.20
2024-01-18T07:21:05.983Z,31.30
2024-01-18T07:22:05.978Z,35.50
2024-01-18T07:23:05.952Z,35.00
2024-01-18T07:24:05.836Z,34.50
2024-01-18T07:25:08.834Z,32.20
2024-01-18T07:26:06.001Z,33.90
2024-01-18T07:27:05.917Z,32.10
2024-01-18T07:28:05.980Z,36.90
2024-01-18T07:29:05.805Z,30.30
2024-01-18T07:30:05.998Z,31.80
2024-01-18T07:31:05.901Z,32.60
2024-01-18T07:32:05.777Z,31.70
2024-01-18T07:33:05.945Z,29.50
2024-01-18T07:34:05.904Z,28.10
2024-01-18T07:35:05.788Z,30.50
2024-01-18T07:36:05.715Z,25.10
2024-01-18T07:37:07.362Z,32.10
2024-01-18T07:38:05.677Z,36.50
2024-01-18T07:39:05.691Z,32.00
2024-01-18T07:40:05.623Z,27.40
2024-01-18T07:41:05.723Z,29.00
2024-01-18T07:42:05.615Z,32.70
2024-01-18T07:43:05.690Z,27.90
2024-01-18T07:44:05.627Z,31.00
2024-01-18T07:45:05.670Z,36.60
2024-01-18T07:46:05.552Z,28.30
2024-01-18T07:47:05.629Z,28.00
2024-01-18T07:48:05.631Z,29.10
2024-01-18T07:49:05.629Z,27.30
2024-01-18T07:50:14.202Z,27.80
2024-01-18T07:51:06.552Z,26.80
2024-01-18T07:52:05.549Z,31.90
2024-01-18T07:53:05.481Z,26.20
2024-01-18T07:54:06.526Z,30.60
2024-01-18T07:55:05.450Z,26.80
2024-01-18T07:56:05.572Z,29.90
2024-01-18T07:57:05.409Z,28.90
2024-01-18T07:58:05.493Z,27.90
2024-01-18T07:59:05.393Z,30.70
2024-01-18T08:00:05.573Z,34.20
2024-01-18T08:01:05.432Z,30.70
2024-01-18T08:02:05.470Z,29.50
2024-01-18T08:03:05.542Z,28.30
2024-01-18T08:04:05.493Z,29.00
2024-01-18T08:05:05.308Z,28.60
2024-01-18T08:06:05.428Z,28.40
2024-01-18T08:07:05.334Z,26.20
2024-01-18T08:08:05.453Z,29.00
2024-01-18T08:09:05.264Z,26.40
2024-01-18T08:10:05.280Z,26.80
2024-01-18T08:11:05.225Z,26.90
2024-01-18T08:12:05.338Z,26.20
2024-01-18T08:13:05.192Z,25.20
2024-01-18T08:14:05.250Z,26.50
2024-01-18T08:15:05.254Z,26.90
2024-01-18T08:16:05.219Z,25.30
2024-01-18T08:17:05.141Z,26.90
2024-01-18T08:18:05.285Z,23.90
2024-01-18T08:19:05.240Z,24.50
2024-01-18T08:20:05.754Z,28.20
2024-01-18T08:21:08.395Z,24.40
2024-01-18T08:22:05.980Z,26.60
2024-01-18T08:23:05.502Z,23.60
2024-01-18T08:24:05.074Z,23.70
2024-01-18T08:25:05.073Z,22.50
2024-01-18T08:26:05.059Z,30.20
2024-01-18T08:27:05.123Z,25.00
2024-01-18T08:28:04.993Z,26.50
2024-01-18T08:29:05.009Z,25.10
2024-01-18T08:30:05.039Z,24.00
2024-01-18T08:31:05.102Z,23.50
2024-01-18T08:32:04.979Z,27.10
2024-01-18T08:33:05.150Z,24.10
2024-01-18T08:34:04.995Z,26.10
2024-01-18T08:35:04.937Z,29.30
2024-01-18T08:36:04.920Z,24.30
2024-01-18T08:37:05.092Z,28.20
2024-01-18T08:38:04.897Z,25.30
2024-01-18T08:39:05.045Z,25.90
2024-01-18T08:40:04.853Z,25.10
2024-01-18T08:41:04.884Z,29.10
2024-01-18T08:42:04.858Z,24.30
2024-01-18T08:43:04.901Z,24.80
2024-01-18T08:44:04.808Z,28.60
2024-01-18T08:45:04.812Z,25.20
2024-01-18T08:46:04.776Z,28.90
2024-01-18T08:47:04.820Z,26.00
2024-01-18T08:48:04.853Z,26.40
2024-01-18T08:49:04.926Z,26.90
2024-01-18T08:50:04.796Z,23.80
2024-01-18T08:51:04.983Z,27.30
2024-01-18T08:52:04.823Z,26.70
2024-01-18T08:53:04.778Z,26.00
2024-01-18T08:54:04.693Z,27.60
2024-01-18T08:55:04.678Z,27.40
2024-01-18T08:56:04.771Z,26.00
2024-01-18T08:57:04.771Z,26.90
2024-01-18T08:58:04.628Z,26.20
2024-01-18T08:59:04.725Z,23.80
2024-01-18T09:00:04.712Z,27.40
2024-01-18T09:01:04.753Z,22.90
2024-01-18T09:02:13.752Z,29.30
2024-01-18T09:03:05.638Z,33.30
2024-01-18T09:04:04.731Z,28.60
2024-01-18T09:05:04.663Z,24.90
2024-01-18T09:06:04.565Z,30.40
2024-01-18T09:07:04.515Z,26.60
2024-01-18T09:08:07.127Z,26.20
2024-01-18T09:09:04.591Z,22.10
2024-01-18T09:10:04.481Z,26.30
2024-01-18T09:11:04.452Z,26.00
2024-01-18T09:12:04.573Z,27.20
2024-01-18T09:13:04.421Z,27.00
2024-01-18T09:14:04.475Z,26.30
2024-01-18T09:15:04.429Z,26.10
2024-01-18T09:16:04.417Z,24.90
2024-01-18T09:17:04.368Z,28.10
2024-01-18T09:18:04.573Z,30.00
2024-01-18T09:19:13.522Z,27.60
2024-01-18T09:20:05.440Z,24.70
2024-01-18T09:21:04.388Z,25.40
2024-01-18T09:22:04.314Z,27.60
2024-01-18T09:23:12.070Z,26.50
2024-01-18T09:24:05.322Z,38.50
2024-01-18T09:25:04.390Z,29.00
2024-01-18T09:26:04.283Z,26.00
2024-01-18T09:27:04.341Z,27.80
2024-01-18T09:28:04.233Z,24.60
2024-01-18T09:29:04.321Z,26.80
2024-01-18T09:30:04.386Z,28.80
2024-01-18T09:31:04.340Z,31.00
2024-01-18T09:32:04.194Z,25.50
2024-01-18T09:33:04.261Z,26.30
2024-01-18T09:34:04.152Z,28.20
2024-01-18T09:35:04.276Z,32.80
2024-01-18T09:36:04.126Z,31.20
2024-01-18T09:37:04.270Z,34.90
2024-01-18T09:38:04.114Z,82.50
2024-01-18T09:39:04.212Z,68.60
2024-01-18T09:40:04.078Z,64.80
2024-01-18T09:41:04.090Z,51.90
2024-01-18T09:42:04.110Z,49.90
2024-01-18T09:43:04.108Z,51.80
2024-01-18T09:44:04.041Z,44.10
2024-01-18T09:45:04.136Z,36.10
2024-01-18T09:46:03.998Z,41.90
2024-01-18T09:47:04.032Z,36.70
2024-01-18T09:48:03.993Z,37.70
2024-01-18T09:49:04.982Z,37.50
2024-01-18T09:50:04.011Z,44.70
2024-01-18T09:51:03.957Z,43.00
2024-01-18T09:52:03.932Z,45.40
2024-01-18T09:53:03.974Z,47.10
2024-01-18T09:54:03.894Z,56.80
2024-01-18T09:55:04.019Z,48.60
2024-01-18T09:56:03.891Z,42.30
2024-01-18T09:57:03.917Z,55.00
2024-01-18T09:58:03.849Z,49.30
2024-01-18T09:59:03.917Z,34.80
2024-01-18T10:00:05.454Z,42.90
2024-01-18T10:01:03.888Z,38.30
2024-01-18T10:02:03.806Z,37.10
2024-01-18T10:03:03.851Z,35.90
2024-01-18T10:04:03.770Z,36.10
2024-01-18T10:05:03.902Z,40.90
2024-01-18T10:06:03.843Z,37.40
2024-01-18T10:07:05.267Z,37.30
2024-01-18T10:08:03.933Z,32.90
2024-01-18T10:09:03.793Z,32.90
2024-01-18T10:10:03.693Z,33.10
2024-01-18T10:11:03.702Z,29.60
2024-01-18T10:12:03.671Z,31.70
2024-01-18T10:13:03.806Z,33.20
2024-01-18T10:14:03.674Z,32.20
2024-01-18T10:15:03.749Z,33.30
2024-01-18T10:16:03.629Z,30.40
2024-01-18T10:17:03.664Z,34.40
2024-01-18T10:18:03.612Z,33.00
2024-01-18T10:19:03.849Z,28.80
2024-01-18T10:20:03.628Z,29.90
2024-01-18T10:21:03.565Z,30.40
2024-01-18T10:22:03.530Z,33.60
2024-01-18T10:23:04.481Z,32.00
2024-01-18T10:24:03.509Z,28.40
2024-01-18T10:25:03.679Z,30.60
2024-01-18T10:26:03.556Z,31.30
2024-01-18T10:27:03.501Z,30.10
2024-01-18T10:28:03.450Z,31.00
2024-01-18T10:29:04.712Z,32.70
2024-01-18T10:30:03.437Z,29.40
2024-01-18T10:31:03.561Z,29.20
2024-01-18T10:32:03.429Z,29.10
2024-01-18T10:33:03.503Z,29.50
2024-01-18T10:34:03.426Z,29.40
2024-01-18T10:35:05.087Z,27.30
2024-01-18T10:36:03.370Z,29.30
2024-01-18T10:37:03.382Z,29.00
2024-01-18T10:38:03.340Z,28.20
2024-01-18T10:39:03.384Z,29.80
2024-01-18T10:40:03.389Z,26.90
2024-01-18T10:41:03.305Z,26.80
2024-01-18T10:42:03.264Z,29.40
2024-01-18T10:43:03.313Z,27.50
2024-01-18T10:44:03.251Z,28.50
2024-01-18T10:45:04.257Z,27.80
2024-01-18T10:46:03.278Z,31.90
2024-01-18T10:47:03.248Z,29.70
2024-01-18T10:48:03.277Z,29.40
2024-01-18T10:49:03.295Z,27.90
2024-01-18T10:50:03.623Z,27.80
2024-01-18T10:51:03.398Z,29.70
2024-01-18T10:52:03.156Z,29.90
2024-01-18T10:53:03.212Z,30.60
2024-01-18T10:54:04.761Z,32.80
2024-01-18T10:55:08.716Z,28.40
2024-01-18T10:56:04.224Z,30.60
2024-01-18T10:57:03.145Z,27.70
2024-01-18T10:58:03.067Z,31.80
2024-01-18T10:59:03.134Z,29.30
2024-01-18T11:00:03.024Z,27.40
2024-01-18T11:01:03.190Z,27.80
2024-01-18T11:02:03.042Z,26.90
2024-01-18T11:03:04.097Z,33.70
2024-01-18T11:04:03.038Z,33.00
2024-01-18T11:05:03.157Z,30.80
2024-01-18T11:06:03.087Z,34.40
2024-01-18T11:07:03.103Z,32.10
2024-01-18T11:08:02.944Z,34.90
2024-01-18T11:09:03.010Z,38.70
2024-01-18T11:10:02.913Z,35.20
2024-01-18T11:11:02.910Z,36.30
2024-01-18T11:12:02.870Z,34.40
2024-01-18T11:13:02.944Z,31.50
2024-01-18T11:14:02.871Z,37.40
2024-01-18T11:15:02.933Z,31.50
2024-01-18T11:16:02.932Z,36.40
2024-01-18T11:17:02.852Z,33.90
2024-01-18T11:18:02.841Z,34.50
2024-01-18T11:19:02.952Z,33.70
2024-01-18T11:20:03.083Z,31.70
2024-01-18T11:21:02.779Z,33.50
2024-01-18T11:22:02.755Z,30.90
2024-01-18T11:23:02.900Z,34.00
2024-01-18T11:24:02.727Z,34.70
2024-01-18T11:25:02.923Z,32.20
2024-01-18T11:26:02.743Z,34.30
2024-01-18T11:27:02.724Z,37.20
2024-01-18T11:28:02.794Z,35.10
2024-01-18T11:29:02.750Z,33.50
2024-01-18T11:30:02.675Z,34.80
2024-01-18T11:31:02.828Z,36.80
2024-01-18T11:32:02.624Z,36.10
2024-01-18T11:33:02.787Z,34.70
2024-01-18T11:34:02.642Z,34.70
2024-01-18T11:35:02.803Z,31.30
2024-01-18T11:36:02.776Z,31.30
2024-01-18T11:37:02.652Z,32.60
2024-01-18T11:38:02.633Z,30.60
2024-01-18T11:39:02.685Z,31.20
2024-01-18T11:40:02.517Z,38.70
2024-01-18T11:41:02.534Z,32.90
2024-01-18T11:42:02.493Z,32.00
2024-01-18T11:43:02.583Z,32.30
2024-01-18T11:44:02.482Z,35.80
2024-01-18T11:45:02.530Z,35.20
2024-01-18T11:46:02.571Z,34.30
2024-01-18T11:47:02.444Z,32.00
2024-01-18T11:48:02.415Z,33.60
2024-01-18T11:49:02.530Z,29.90
2024-01-18T11:50:02.563Z,31.00
2024-01-18T11:51:02.412Z,29.00
2024-01-18T11:52:02.348Z,32.20
2024-01-18T11:53:04.016Z,32.80
2024-01-18T11:54:02.319Z,31.70
2024-01-18T11:55:02.525Z,28.10
2024-01-18T11:56:02.304Z,29.50
2024-01-18T11:57:02.312Z,27.30
2024-01-18T11:58:02.268Z,30.70
2024-01-18T11:59:05.665Z,31.80
2024-01-18T12:00:02.263Z,31.80
2024-01-18T12:01:02.350Z,31.00
2024-01-18T12:02:02.235Z,30.30
2024-01-18T12:03:02.265Z,31.40
2024-01-18T12:04:02.486Z,33.60
2024-01-18T12:05:02.399Z,31.20
2024-01-18T12:06:02.175Z,31.10
2024-01-18T12:07:02.259Z,26.90
2024-01-18T12:08:02.200Z,28.80
2024-01-18T12:09:02.225Z,30.50
2024-01-18T12:10:02.171Z,30.20
2024-01-18T12:11:04.045Z,29.00
2024-01-18T12:12:02.089Z,27.50
2024-01-18T12:13:02.215Z,26.70
2024-01-18T12:14:02.097Z,26.10
2024-01-18T12:15:25.143Z,29.90
2024-01-18T12:16:02.221Z,28.40
2024-01-18T12:17:02.073Z,28.70
2024-01-18T12:18:02.019Z,29.20
2024-01-18T12:19:02.085Z,25.60
2024-01-18T12:20:02.040Z,27.30
2024-01-18T12:21:02.096Z,31.10
2024-01-18T12:22:02.080Z,29.80
2024-01-18T12:23:01.991Z,27.40
2024-01-18T12:24:01.938Z,29.80
2024-01-18T12:25:04.752Z,27.30
2024-01-18T12:26:01.938Z,28.00
2024-01-18T12:27:01.931Z,26.40
2024-01-18T12:28:01.989Z,28.00
2024-01-18T12:29:01.989Z,29.50
2024-01-18T12:30:01.854Z,28.70
2024-01-18T12:31:02.045Z,31.80
2024-01-18T12:32:01.854Z,27.40
2024-01-18T12:33:02.098Z,29.20
2024-01-18T12:34:02.119Z,26.10
2024-01-18T12:35:01.989Z,25.60
2024-01-18T12:36:03.258Z,25.90
2024-01-18T12:37:02.889Z,31.40
2024-01-18T12:38:01.961Z,31.30
2024-01-18T12:39:01.820Z,29.40
2024-01-18T12:40:01.839Z,30.20
2024-01-18T12:41:01.840Z,29.60
2024-01-18T12:42:01.770Z,29.80
2024-01-18T12:43:01.774Z,27.00
2024-01-18T12:44:01.725Z,27.50
2024-01-18T12:45:01.745Z,24.60
2024-01-18T12:46:01.703Z,23.90
2024-01-18T12:47:05.121Z,27.00
2024-01-18T12:48:01.807Z,30.20
2024-01-18T12:49:01.766Z,26.00
2024-01-18T12:50:02.014Z,27.30
2024-01-18T12:51:01.792Z,25.80
2024-01-18T12:52:01.635Z,26.70
2024-01-18T12:53:04.005Z,30.40